TimeCST,TemperatureF,Dew PointF,Humidity,Sea Level PressureIn,VisibilityMPH,Wind Direction,Wind SpeedMPH,Gust SpeedMPH,PrecipitationIn,Events,Conditions,WindDirDegrees,DateUTC
12:08 AM,21.2,17.6,86,29.85,2.0,North,9.2,-,0.00,Snow,Light Snow,360,2013-02-22 06:08:00
12:52 AM,21.0,18.0,88,29.89,2.5,North,9.2,-,0.00,Snow,Light Snow,350,2013-02-22 06:52:00
1:52 AM,21.0,18.0,88,29.89,2.5,NNW,11.5,-,0.01,Snow,Light Snow,340,2013-02-22 07:52:00
2:52 AM,19.9,17.1,89,29.89,2.5,NNW,9.2,-,0.01,Snow,Light Snow,340,2013-02-22 08:52:00
3:06 AM,19.4,17.6,93,29.85,3.0,NNW,9.2,-,0.00,Snow,Light Snow,340,2013-02-22 09:06:00
3:52 AM,19.9,16.0,85,29.89,3.0,NNW,11.5,-,0.00,Snow,Light Snow,330,2013-02-22 09:52:00
4:15 AM,19.4,15.8,86,29.85,6.0,NNW,11.5,-,0.00,Snow,Light Snow,330,2013-02-22 10:15:00
4:52 AM,19.9,16.0,85,29.90,3.0,NNW,13.8,-,0.00,Snow,Light Snow,330,2013-02-22 10:52:00
5:08 AM,19.4,15.8,86,29.86,2.5,NNW,15.0,-,0.00,Snow,Light Snow,330,2013-02-22 11:08:00
5:48 AM,19.4,15.8,86,29.86,4.0,NNW,12.7,-,0.00,Snow,Light Snow,330,2013-02-22 11:48:00
5:52 AM,19.4,15.8,86,29.87,5.0,NNW,12.7,-,N/A,Snow,Light Snow,330,2013-02-22 11:52:00
6:52 AM,19.0,14.0,81,29.92,10.0,NNW,13.8,-,0.00,Snow,Light Snow,330,2013-02-22 12:52:00
7:52 AM,18.0,12.9,81,29.95,10.0,NNW,16.1,-,0.00,,Scattered Clouds,330,2013-02-22 13:52:00
8:52 AM,19.0,12.0,74,29.98,10.0,NNW,13.8,-,N/A,,Scattered Clouds,340,2013-02-22 14:52:00
9:52 AM,21.0,14.0,74,30.00,10.0,NNW,15.0,-,N/A,,Scattered Clouds,340,2013-02-22 15:52:00
10:05 AM,21.2,14.0,74,29.96,10.0,NW,11.5,-,N/A,,Mostly Cloudy,320,2013-02-22 16:05:00
10:52 AM,21.0,14.0,74,30.01,10.0,NW,13.8,-,N/A,,Mostly Cloudy,310,2013-02-22 16:52:00
11:16 AM,23.0,15.8,74,29.97,10.0,NW,9.2,-,N/A,,Mostly Cloudy,320,2013-02-22 17:16:00
11:52 AM,23.0,14.0,68,30.03,10.0,WNW,9.2,-,N/A,,Mostly Cloudy,300,2013-02-22 17:52:00
12:52 PM,21.9,14.0,72,30.05,10.0,WNW,12.7,-,N/A,,Mostly Cloudy,300,2013-02-22 18:52:00
1:49 PM,24.8,14.0,64,30.00,10.0,WNW,11.5,-,N/A,,Mostly Cloudy,290,2013-02-22 19:49:00
1:52 PM,24.1,14.0,65,30.04,10.0,West,12.7,-,N/A,,Mostly Cloudy,280,2013-02-22 19:52:00
2:52 PM,24.1,14.0,65,30.04,10.0,WNW,13.8,-,N/A,,Scattered Clouds,300,2013-02-22 20:52:00
3:52 PM,23.0,12.9,65,30.04,10.0,WNW,16.1,-,N/A,,Scattered Clouds,300,2013-02-22 21:52:00
4:52 PM,23.0,14.0,68,30.05,10.0,WNW,12.7,-,N/A,,Mostly Cloudy,300,2013-02-22 22:52:00
5:52 PM,21.9,14.0,72,30.06,10.0,NW,11.5,-,N/A,,Overcast,310,2013-02-22 23:52:00
6:39 PM,21.2,12.2,68,30.03,10.0,WNW,8.1,-,N/A,,Mostly Cloudy,300,2013-02-23 00:39:00
6:52 PM,19.9,12.0,71,30.07,10.0,WNW,6.9,-,N/A,,Mostly Cloudy,290,2013-02-23 00:52:00
7:52 PM,19.9,12.9,74,30.09,10.0,WSW,4.6,-,N/A,,Overcast,250,2013-02-23 01:52:00
8:13 PM,19.4,12.2,74,30.03,10.0,West,6.9,-,N/A,,Scattered Clouds,280,2013-02-23 02:13:00
8:45 PM,19.4,12.2,74,30.03,10.0,WNW,5.8,-,N/A,,Overcast,290,2013-02-23 02:45:00
8:52 PM,19.9,12.9,74,30.08,10.0,WNW,5.8,-,N/A,,Overcast,290,2013-02-23 02:52:00
9:42 PM,17.6,10.4,73,30.03,10.0,WNW,6.9,-,N/A,,Scattered Clouds,290,2013-02-23 03:42:00
9:52 PM,18.0,10.9,74,30.08,10.0,WNW,8.1,-,N/A,,Scattered Clouds,290,2013-02-23 03:52:00
10:52 PM,14.0,9.0,80,30.08,10.0,Calm,Calm,-,N/A,,Clear,0,2013-02-23 04:52:00
11:52 PM,15.1,9.0,77,30.07,9.0,Calm,Calm,-,N/A,,Clear,0,2013-02-23 05:52:00